Sign in

Links

Info

Aviation weather - KDAB

METAR KDAB 260153Z 00000KT 10SM CLR 28/26 A3010 RMK AO2 SLP192 T02830256

TAF KDAB 252331Z 2600/2624 24006KT P6SM FEW050 SCT300 FM260300 23002KT P6SM FEW050 SCT300 FM261700 17005KT P6SM SCT025 SCT300 FM262000 12008KT P6SM SCT050 SCT300

Aviation weather from ADDS. Re-check weather before flight.

-